sensor_id;sensor_type;location;lat;lon;timestamp;P1;durP1;ratioP1;P2;durP2;ratioP2
20491;SDS011;10404;51.468;6.762;2023-08-08T00:01:41;3.38;;;3.17;;
20491;SDS011;10404;51.468;6.762;2023-08-08T00:04:08;2.95;;;2.40;;
20491;SDS011;10404;51.468;6.762;2023-08-08T00:06:35;2.47;;;1.95;;
20491;SDS011;10404;51.468;6.762;2023-08-08T00:09:00;3.00;;;2.13;;
20491;SDS011;10404;51.468;6.762;2023-08-08T00:11:26;2.65;;;2.45;;
20491;SDS011;10404;51.468;6.762;2023-08-08T00:13:52;3.40;;;3.20;;
20491;SDS011;10404;51.468;6.762;2023-08-08T00:16:18;2.40;;;1.90;;
20491;SDS011;10404;51.468;6.762;2023-08-08T00:18:43;3.00;;;2.80;;
20491;SDS011;10404;51.468;6.762;2023-08-08T00:21:09;2.35;;;1.75;;
20491;SDS011;10404;51.468;6.762;2023-08-08T00:23:34;2.58;;;2.00;;
20491;SDS011;10404;51.468;6.762;2023-08-08T00:26:00;2.50;;;2.30;;
20491;SDS011;10404;51.468;6.762;2023-08-08T00:28:26;2.15;;;1.70;;
20491;SDS011;10404;51.468;6.762;2023-08-08T00:30:51;3.95;;;3.58;;
20491;SDS011;10404;51.468;6.762;2023-08-08T00:33:17;2.15;;;1.92;;
20491;SDS011;10404;51.468;6.762;2023-08-08T00:35:42;2.72;;;2.45;;
20491;SDS011;10404;51.468;6.762;2023-08-08T00:38:09;2.75;;;2.53;;
20491;SDS011;10404;51.468;6.762;2023-08-08T00:40:35;3.00;;;2.28;;
20491;SDS011;10404;51.468;6.762;2023-08-08T00:43:01;2.60;;;2.33;;
20491;SDS011;10404;51.468;6.762;2023-08-08T00:45:26;3.08;;;2.83;;
20491;SDS011;10404;51.468;6.762;2023-08-08T00:47:53;3.83;;;3.53;;
20491;SDS011;10404;51.468;6.762;2023-08-08T00:50:18;2.88;;;1.77;;
20491;SDS011;10404;51.468;6.762;2023-08-08T00:52:45;3.15;;;2.58;;
20491;SDS011;10404;51.468;6.762;2023-08-08T00:55:11;2.17;;;1.98;;
20491;SDS011;10404;51.468;6.762;2023-08-08T00:57:37;3.63;;;2.13;;
20491;SDS011;10404;51.468;6.762;2023-08-08T01:00:05;2.47;;;2.28;;
20491;SDS011;10404;51.468;6.762;2023-08-08T01:02:31;3.35;;;3.05;;
20491;SDS011;10404;51.468;6.762;2023-08-08T01:04:57;3.50;;;3.30;;
20491;SDS011;10404;51.468;6.762;2023-08-08T01:10:07;3.22;;;2.97;;
20491;SDS011;10404;51.468;6.762;2023-08-08T01:12:38;2.28;;;2.03;;
20491;SDS011;10404;51.468;6.762;2023-08-08T01:15:07;2.35;;;2.03;;
20491;SDS011;10404;51.468;6.762;2023-08-08T01:17:34;3.60;;;2.20;;
20491;SDS011;10404;51.468;6.762;2023-08-08T01:20:02;2.30;;;2.10;;
20491;SDS011;10404;51.468;6.762;2023-08-08T01:22:36;3.58;;;3.00;;
20491;SDS011;10404;51.468;6.762;2023-08-08T01:25:10;3.22;;;2.17;;
20491;SDS011;10404;51.468;6.762;2023-08-08T01:27:35;3.42;;;2.15;;
20491;SDS011;10404;51.468;6.762;2023-08-08T01:30:01;3.53;;;2.83;;
20491;SDS011;10404;51.468;6.762;2023-08-08T01:32:28;2.15;;;2.00;;
20491;SDS011;10404;51.468;6.762;2023-08-08T01:34:54;3.10;;;2.67;;
20491;SDS011;10404;51.468;6.762;2023-08-08T01:37:21;3.05;;;2.15;;
20491;SDS011;10404;51.468;6.762;2023-08-08T01:39:52;4.30;;;3.08;;
20491;SDS011;10404;51.468;6.762;2023-08-08T01:42:20;3.53;;;2.63;;
20491;SDS011;10404;51.468;6.762;2023-08-08T01:44:48;4.00;;;3.70;;
20491;SDS011;10404;51.468;6.762;2023-08-08T01:47:14;3.10;;;1.92;;
20491;SDS011;10404;51.468;6.762;2023-08-08T01:49:40;3.08;;;2.67;;
20491;SDS011;10404;51.468;6.762;2023-08-08T01:52:05;3.03;;;2.53;;
20491;SDS011;10404;51.468;6.762;2023-08-08T01:54:31;3.00;;;2.67;;
20491;SDS011;10404;51.468;6.762;2023-08-08T01:56:57;3.17;;;2.50;;
20491;SDS011;10404;51.468;6.762;2023-08-08T01:59:22;2.65;;;1.85;;
20491;SDS011;10404;51.468;6.762;2023-08-08T02:01:48;3.35;;;3.05;;
20491;SDS011;10404;51.468;6.762;2023-08-08T02:04:13;2.38;;;2.17;;
20491;SDS011;10404;51.468;6.762;2023-08-08T02:06:39;2.80;;;2.58;;
20491;SDS011;10404;51.468;6.762;2023-08-08T02:09:05;2.63;;;2.40;;
20491;SDS011;10404;51.468;6.762;2023-08-08T02:11:30;2.00;;;1.70;;
20491;SDS011;10404;51.468;6.762;2023-08-08T02:13:56;2.90;;;2.60;;
20491;SDS011;10404;51.468;6.762;2023-08-08T02:16:22;3.13;;;2.72;;
20491;SDS011;10404;51.468;6.762;2023-08-08T02:18:47;4.47;;;3.63;;
20491;SDS011;10404;51.468;6.762;2023-08-08T02:21:13;3.10;;;2.15;;
20491;SDS011;10404;51.468;6.762;2023-08-08T02:23:38;3.40;;;2.35;;
20491;SDS011;10404;51.468;6.762;2023-08-08T02:26:04;2.60;;;2.40;;
20491;SDS011;10404;51.468;6.762;2023-08-08T02:28:29;3.25;;;2.40;;
20491;SDS011;10404;51.468;6.762;2023-08-08T02:30:55;3.90;;;2.63;;
20491;SDS011;10404;51.468;6.762;2023-08-08T02:33:20;3.08;;;2.28;;
20491;SDS011;10404;51.468;6.762;2023-08-08T02:35:46;2.88;;;2.50;;
20491;SDS011;10404;51.468;6.762;2023-08-08T02:38:12;3.00;;;2.38;;
20491;SDS011;10404;51.468;6.762;2023-08-08T02:40:37;2.60;;;2.13;;
20491;SDS011;10404;51.468;6.762;2023-08-08T02:43:04;3.85;;;2.65;;
20491;SDS011;10404;51.468;6.762;2023-08-08T02:45:29;2.72;;;2.33;;
20491;SDS011;10404;51.468;6.762;2023-08-08T02:47:55;4.07;;;3.72;;
20491;SDS011;10404;51.468;6.762;2023-08-08T02:50:20;2.97;;;2.33;;
20491;SDS011;10404;51.468;6.762;2023-08-08T02:52:46;2.78;;;2.58;;
20491;SDS011;10404;51.468;6.762;2023-08-08T02:55:12;2.30;;;2.10;;
20491;SDS011;10404;51.468;6.762;2023-08-08T02:57:38;2.70;;;2.50;;
20491;SDS011;10404;51.468;6.762;2023-08-08T03:00:04;4.22;;;2.50;;
20491;SDS011;10404;51.468;6.762;2023-08-08T03:02:30;3.47;;;2.47;;
20491;SDS011;10404;51.468;6.762;2023-08-08T03:04:55;3.15;;;2.55;;
20491;SDS011;10404;51.468;6.762;2023-08-08T03:07:21;2.97;;;2.58;;
20491;SDS011;10404;51.468;6.762;2023-08-08T03:09:46;3.22;;;2.80;;
20491;SDS011;10404;51.468;6.762;2023-08-08T03:12:12;4.00;;;2.33;;
20491;SDS011;10404;51.468;6.762;2023-08-08T03:14:38;2.58;;;2.38;;
20491;SDS011;10404;51.468;6.762;2023-08-08T03:17:03;3.38;;;3.05;;
20491;SDS011;10404;51.468;6.762;2023-08-08T03:19:29;2.60;;;2.13;;
20491;SDS011;10404;51.468;6.762;2023-08-08T03:21:55;3.55;;;3.25;;
20491;SDS011;10404;51.468;6.762;2023-08-08T03:24:20;3.20;;;2.17;;
20491;SDS011;10404;51.468;6.762;2023-08-08T03:26:46;3.78;;;3.22;;
20491;SDS011;10404;51.468;6.762;2023-08-08T03:29:11;3.33;;;2.20;;
20491;SDS011;10404;51.468;6.762;2023-08-08T03:31:38;3.58;;;3.28;;
20491;SDS011;10404;51.468;6.762;2023-08-08T03:34:03;3.03;;;2.30;;
20491;SDS011;10404;51.468;6.762;2023-08-08T03:36:29;3.63;;;2.30;;
20491;SDS011;10404;51.468;6.762;2023-08-08T03:38:55;3.40;;;3.10;;
20491;SDS011;10404;51.468;6.762;2023-08-08T03:41:21;2.60;;;2.10;;
20491;SDS011;10404;51.468;6.762;2023-08-08T03:43:46;4.30;;;2.78;;
20491;SDS011;10404;51.468;6.762;2023-08-08T03:46:12;3.47;;;2.30;;
20491;SDS011;10404;51.468;6.762;2023-08-08T03:48:38;3.28;;;2.55;;
20491;SDS011;10404;51.468;6.762;2023-08-08T03:51:04;4.15;;;3.00;;
20491;SDS011;10404;51.468;6.762;2023-08-08T03:53:29;3.47;;;2.65;;
20491;SDS011;10404;51.468;6.762;2023-08-08T03:55:55;3.58;;;3.28;;
20491;SDS011;10404;51.468;6.762;2023-08-08T03:58:21;2.83;;;2.20;;
20491;SDS011;10404;51.468;6.762;2023-08-08T04:00:46;3.53;;;3.05;;
20491;SDS011;10404;51.468;6.762;2023-08-08T04:03:13;3.05;;;2.60;;
20491;SDS011;10404;51.468;6.762;2023-08-08T04:05:39;5.05;;;2.85;;
20491;SDS011;10404;51.468;6.762;2023-08-08T04:08:06;4.28;;;2.45;;
20491;SDS011;10404;51.468;6.762;2023-08-08T04:10:31;3.08;;;2.75;;
20491;SDS011;10404;51.468;6.762;2023-08-08T04:12:57;4.53;;;2.80;;
20491;SDS011;10404;51.468;6.762;2023-08-08T04:15:23;3.67;;;2.22;;
20491;SDS011;10404;51.468;6.762;2023-08-08T04:17:48;3.67;;;2.88;;
20491;SDS011;10404;51.468;6.762;2023-08-08T04:20:14;3.50;;;2.40;;
20491;SDS011;10404;51.468;6.762;2023-08-08T04:22:40;3.67;;;3.15;;
20491;SDS011;10404;51.468;6.762;2023-08-08T04:25:06;3.58;;;2.20;;
20491;SDS011;10404;51.468;6.762;2023-08-08T04:27:32;3.65;;;2.67;;
20491;SDS011;10404;51.468;6.762;2023-08-08T04:29:58;3.78;;;3.00;;
20491;SDS011;10404;51.468;6.762;2023-08-08T04:32:24;3.67;;;3.35;;
20491;SDS011;10404;51.468;6.762;2023-08-08T04:34:49;4.35;;;3.80;;
20491;SDS011;10404;51.468;6.762;2023-08-08T04:37:15;3.63;;;3.08;;
20491;SDS011;10404;51.468;6.762;2023-08-08T04:39:40;3.25;;;2.95;;
20491;SDS011;10404;51.468;6.762;2023-08-08T04:42:06;4.13;;;3.10;;
20491;SDS011;10404;51.468;6.762;2023-08-08T04:44:32;3.95;;;2.78;;
20491;SDS011;10404;51.468;6.762;2023-08-08T04:46:57;3.35;;;3.05;;
20491;SDS011;10404;51.468;6.762;2023-08-08T04:49:23;3.22;;;2.92;;
20491;SDS011;10404;51.468;6.762;2023-08-08T04:51:48;4.20;;;3.90;;
20491;SDS011;10404;51.468;6.762;2023-08-08T04:54:14;3.70;;;2.60;;
20491;SDS011;10404;51.468;6.762;2023-08-08T04:56:39;5.57;;;3.38;;
20491;SDS011;10404;51.468;6.762;2023-08-08T04:59:05;3.72;;;2.58;;
20491;SDS011;10404;51.468;6.762;2023-08-08T05:01:31;5.18;;;2.97;;
20491;SDS011;10404;51.468;6.762;2023-08-08T05:03:56;4.00;;;3.35;;
20491;SDS011;10404;51.468;6.762;2023-08-08T05:06:22;2.92;;;2.47;;
20491;SDS011;10404;51.468;6.762;2023-08-08T05:08:48;4.28;;;3.72;;
20491;SDS011;10404;51.468;6.762;2023-08-08T05:11:15;4.15;;;2.53;;
20491;SDS011;10404;51.468;6.762;2023-08-08T05:13:40;3.63;;;3.28;;
20491;SDS011;10404;51.468;6.762;2023-08-08T05:16:07;4.75;;;2.50;;
20491;SDS011;10404;51.468;6.762;2023-08-08T05:18:33;3.60;;;2.47;;
20491;SDS011;10404;51.468;6.762;2023-08-08T05:20:58;5.53;;;3.80;;
20491;SDS011;10404;51.468;6.762;2023-08-08T05:23:24;4.72;;;2.40;;
20491;SDS011;10404;51.468;6.762;2023-08-08T05:25:50;5.03;;;4.47;;
20491;SDS011;10404;51.468;6.762;2023-08-08T05:28:15;4.68;;;2.63;;
20491;SDS011;10404;51.468;6.762;2023-08-08T05:30:41;3.95;;;3.15;;
20491;SDS011;10404;51.468;6.762;2023-08-08T05:33:06;4.20;;;2.53;;
20491;SDS011;10404;51.468;6.762;2023-08-08T05:35:32;3.58;;;2.70;;
20491;SDS011;10404;51.468;6.762;2023-08-08T05:37:58;5.93;;;3.50;;
20491;SDS011;10404;51.468;6.762;2023-08-08T05:40:23;4.78;;;2.85;;
20491;SDS011;10404;51.468;6.762;2023-08-08T05:42:49;5.13;;;4.72;;
20491;SDS011;10404;51.468;6.762;2023-08-08T05:45:14;6.78;;;3.28;;
20491;SDS011;10404;51.468;6.762;2023-08-08T05:47:40;5.97;;;4.22;;
20491;SDS011;10404;51.468;6.762;2023-08-08T05:50:06;5.55;;;4.72;;
20491;SDS011;10404;51.468;6.762;2023-08-08T05:52:31;4.55;;;3.33;;
20491;SDS011;10404;51.468;6.762;2023-08-08T05:54:57;5.13;;;3.58;;
20491;SDS011;10404;51.468;6.762;2023-08-08T05:57:24;5.47;;;3.92;;
20491;SDS011;10404;51.468;6.762;2023-08-08T05:59:50;5.55;;;4.95;;
20491;SDS011;10404;51.468;6.762;2023-08-08T06:02:16;4.75;;;3.78;;
20491;SDS011;10404;51.468;6.762;2023-08-08T06:04:42;4.40;;;4.00;;
20491;SDS011;10404;51.468;6.762;2023-08-08T06:07:07;4.20;;;3.80;;
20491;SDS011;10404;51.468;6.762;2023-08-08T06:09:33;4.03;;;3.50;;
20491;SDS011;10404;51.468;6.762;2023-08-08T06:11:59;6.85;;;4.55;;
20491;SDS011;10404;51.468;6.762;2023-08-08T06:14:24;5.65;;;3.90;;
20491;SDS011;10404;51.468;6.762;2023-08-08T06:16:50;7.55;;;6.25;;
20491;SDS011;10404;51.468;6.762;2023-08-08T06:19:15;6.38;;;3.90;;
20491;SDS011;10404;51.468;6.762;2023-08-08T06:21:41;6.82;;;4.53;;
20491;SDS011;10404;51.468;6.762;2023-08-08T06:24:07;5.80;;;3.97;;
20491;SDS011;10404;51.468;6.762;2023-08-08T06:26:32;6.32;;;4.88;;
20491;SDS011;10404;51.468;6.762;2023-08-08T06:28:59;5.40;;;4.32;;
20491;SDS011;10404;51.468;6.762;2023-08-08T06:31:24;6.25;;;4.35;;
20491;SDS011;10404;51.468;6.762;2023-08-08T06:33:50;8.07;;;5.13;;
20491;SDS011;10404;51.468;6.762;2023-08-08T06:36:15;5.63;;;4.50;;
20491;SDS011;10404;51.468;6.762;2023-08-08T06:38:41;5.75;;;5.03;;
20491;SDS011;10404;51.468;6.762;2023-08-08T06:41:07;7.53;;;5.00;;
20491;SDS011;10404;51.468;6.762;2023-08-08T06:43:33;9.15;;;5.07;;
20491;SDS011;10404;51.468;6.762;2023-08-08T06:45:59;7.25;;;5.72;;
20491;SDS011;10404;51.468;6.762;2023-08-08T06:48:25;6.75;;;5.40;;
20491;SDS011;10404;51.468;6.762;2023-08-08T06:50:51;7.60;;;6.78;;
20491;SDS011;10404;51.468;6.762;2023-08-08T06:53:17;8.13;;;5.18;;
20491;SDS011;10404;51.468;6.762;2023-08-08T06:55:43;7.00;;;5.93;;
20491;SDS011;10404;51.468;6.762;2023-08-08T06:58:08;7.80;;;5.95;;
20491;SDS011;10404;51.468;6.762;2023-08-08T07:00:34;7.55;;;5.00;;
20491;SDS011;10404;51.468;6.762;2023-08-08T07:02:59;8.20;;;6.25;;
20491;SDS011;10404;51.468;6.762;2023-08-08T07:05:25;8.18;;;5.88;;
20491;SDS011;10404;51.468;6.762;2023-08-08T07:07:50;9.50;;;8.13;;
20491;SDS011;10404;51.468;6.762;2023-08-08T07:10:16;8.07;;;6.10;;
20491;SDS011;10404;51.468;6.762;2023-08-08T07:12:42;8.18;;;5.93;;
20491;SDS011;10404;51.468;6.762;2023-08-08T07:15:08;7.90;;;5.32;;
20491;SDS011;10404;51.468;6.762;2023-08-08T07:17:34;6.35;;;4.78;;
20491;SDS011;10404;51.468;6.762;2023-08-08T07:19:59;10.23;;;6.88;;
20491;SDS011;10404;51.468;6.762;2023-08-08T07:22:25;8.07;;;5.40;;
20491;SDS011;10404;51.468;6.762;2023-08-08T07:24:50;7.78;;;7.07;;
20491;SDS011;10404;51.468;6.762;2023-08-08T07:27:16;6.65;;;5.65;;
20491;SDS011;10404;51.468;6.762;2023-08-08T07:29:42;7.18;;;5.80;;
20491;SDS011;10404;51.468;6.762;2023-08-08T07:32:07;7.57;;;6.13;;
20491;SDS011;10404;51.468;6.762;2023-08-08T07:34:33;8.55;;;6.25;;
20491;SDS011;10404;51.468;6.762;2023-08-08T07:36:59;9.82;;;7.78;;
20491;SDS011;10404;51.468;6.762;2023-08-08T07:39:25;8.43;;;5.85;;
20491;SDS011;10404;51.468;6.762;2023-08-08T07:41:51;6.78;;;5.63;;
20491;SDS011;10404;51.468;6.762;2023-08-08T07:44:17;7.65;;;5.20;;
20491;SDS011;10404;51.468;6.762;2023-08-08T07:46:42;9.13;;;6.10;;
20491;SDS011;10404;51.468;6.762;2023-08-08T07:49:08;7.65;;;5.53;;
20491;SDS011;10404;51.468;6.762;2023-08-08T07:51:34;7.57;;;4.75;;
20491;SDS011;10404;51.468;6.762;2023-08-08T07:54:00;5.63;;;5.07;;
20491;SDS011;10404;51.468;6.762;2023-08-08T07:56:26;7.40;;;5.63;;
20491;SDS011;10404;51.468;6.762;2023-08-08T07:58:52;7.28;;;6.57;;
20491;SDS011;10404;51.468;6.762;2023-08-08T08:01:18;6.32;;;5.15;;
20491;SDS011;10404;51.468;6.762;2023-08-08T08:03:44;5.38;;;4.97;;
20491;SDS011;10404;51.468;6.762;2023-08-08T08:06:10;6.90;;;4.43;;
20491;SDS011;10404;51.468;6.762;2023-08-08T08:08:36;6.05;;;4.18;;
20491;SDS011;10404;51.468;6.762;2023-08-08T08:11:02;6.00;;;5.25;;
20491;SDS011;10404;51.468;6.762;2023-08-08T08:13:28;5.50;;;4.90;;
20491;SDS011;10404;51.468;6.762;2023-08-08T08:15:53;6.57;;;4.97;;
20491;SDS011;10404;51.468;6.762;2023-08-08T08:18:19;5.78;;;3.97;;
20491;SDS011;10404;51.468;6.762;2023-08-08T08:20:45;5.38;;;4.72;;
20491;SDS011;10404;51.468;6.762;2023-08-08T08:23:11;5.20;;;3.28;;
20491;SDS011;10404;51.468;6.762;2023-08-08T08:25:37;5.68;;;3.92;;
20491;SDS011;10404;51.468;6.762;2023-08-08T08:28:02;5.00;;;4.15;;
20491;SDS011;10404;51.468;6.762;2023-08-08T08:30:28;4.45;;;3.22;;
20491;SDS011;10404;51.468;6.762;2023-08-08T08:32:54;6.35;;;4.75;;
20491;SDS011;10404;51.468;6.762;2023-08-08T08:35:19;6.88;;;3.78;;
20491;SDS011;10404;51.468;6.762;2023-08-08T08:37:45;5.32;;;3.17;;
20491;SDS011;10404;51.468;6.762;2023-08-08T08:40:11;4.90;;;3.30;;
20491;SDS011;10404;51.468;6.762;2023-08-08T08:42:37;6.60;;;3.42;;
20491;SDS011;10404;51.468;6.762;2023-08-08T08:45:04;5.05;;;4.00;;
20491;SDS011;10404;51.468;6.762;2023-08-08T08:47:31;4.28;;;2.50;;
20491;SDS011;10404;51.468;6.762;2023-08-08T08:49:58;5.57;;;4.43;;
20491;SDS011;10404;51.468;6.762;2023-08-08T08:52:24;4.18;;;3.78;;
20491;SDS011;10404;51.468;6.762;2023-08-08T08:54:50;6.68;;;3.88;;
20491;SDS011;10404;51.468;6.762;2023-08-08T08:57:16;4.03;;;2.80;;
20491;SDS011;10404;51.468;6.762;2023-08-08T08:59:42;5.30;;;3.15;;
20491;SDS011;10404;51.468;6.762;2023-08-08T09:02:08;5.10;;;3.20;;
20491;SDS011;10404;51.468;6.762;2023-08-08T09:04:35;4.60;;;2.78;;
20491;SDS011;10404;51.468;6.762;2023-08-08T09:07:01;3.65;;;3.30;;
20491;SDS011;10404;51.468;6.762;2023-08-08T09:09:33;3.95;;;3.65;;
20491;SDS011;10404;51.468;6.762;2023-08-08T09:11:59;5.25;;;3.72;;
20491;SDS011;10404;51.468;6.762;2023-08-08T09:14:28;4.47;;;2.40;;
20491;SDS011;10404;51.468;6.762;2023-08-08T09:16:54;3.85;;;3.40;;
20491;SDS011;10404;51.468;6.762;2023-08-08T09:19:21;4.10;;;2.90;;
20491;SDS011;10404;51.468;6.762;2023-08-08T09:21:47;4.75;;;3.70;;
20491;SDS011;10404;51.468;6.762;2023-08-08T09:24:13;5.30;;;2.88;;
20491;SDS011;10404;51.468;6.762;2023-08-08T09:26:39;3.55;;;2.90;;
20491;SDS011;10404;51.468;6.762;2023-08-08T09:29:05;3.35;;;3.00;;
20491;SDS011;10404;51.468;6.762;2023-08-08T09:31:31;3.08;;;2.45;;
20491;SDS011;10404;51.468;6.762;2023-08-08T09:33:57;4.88;;;4.00;;
20491;SDS011;10404;51.468;6.762;2023-08-08T09:36:24;3.80;;;3.03;;
20491;SDS011;10404;51.468;6.762;2023-08-08T09:38:50;5.60;;;3.25;;
20491;SDS011;10404;51.468;6.762;2023-08-08T09:41:16;4.28;;;3.30;;
20491;SDS011;10404;51.468;6.762;2023-08-08T09:43:45;4.78;;;3.40;;
20491;SDS011;10404;51.468;6.762;2023-08-08T09:46:12;4.53;;;2.78;;
20491;SDS011;10404;51.468;6.762;2023-08-08T09:48:38;4.53;;;2.90;;
20491;SDS011;10404;51.468;6.762;2023-08-08T09:51:05;6.97;;;3.30;;
20491;SDS011;10404;51.468;6.762;2023-08-08T09:53:32;4.18;;;2.45;;
20491;SDS011;10404;51.468;6.762;2023-08-08T09:55:58;4.72;;;3.53;;
20491;SDS011;10404;51.468;6.762;2023-08-08T09:58:28;3.97;;;2.70;;
20491;SDS011;10404;51.468;6.762;2023-08-08T10:00:54;5.65;;;4.10;;
20491;SDS011;10404;51.468;6.762;2023-08-08T10:03:20;4.70;;;3.00;;
20491;SDS011;10404;51.468;6.762;2023-08-08T10:05:46;4.38;;;3.25;;
20491;SDS011;10404;51.468;6.762;2023-08-08T10:08:12;4.13;;;3.72;;
20491;SDS011;10404;51.468;6.762;2023-08-08T10:10:40;3.95;;;3.58;;
20491;SDS011;10404;51.468;6.762;2023-08-08T10:13:09;4.97;;;3.28;;
20491;SDS011;10404;51.468;6.762;2023-08-08T10:15:38;5.57;;;2.75;;
20491;SDS011;10404;51.468;6.762;2023-08-08T10:18:04;3.38;;;2.83;;
20491;SDS011;10404;51.468;6.762;2023-08-08T10:20:31;4.72;;;2.58;;
20491;SDS011;10404;51.468;6.762;2023-08-08T10:23:02;4.88;;;4.38;;
20491;SDS011;10404;51.468;6.762;2023-08-08T10:25:29;3.95;;;3.20;;
20491;SDS011;10404;51.468;6.762;2023-08-08T10:28:02;5.22;;;4.00;;
20491;SDS011;10404;51.468;6.762;2023-08-08T10:30:30;3.08;;;2.50;;
20491;SDS011;10404;51.468;6.762;2023-08-08T10:33:06;5.05;;;3.13;;
20491;SDS011;10404;51.468;6.762;2023-08-08T10:35:51;4.32;;;3.92;;
20491;SDS011;10404;51.468;6.762;2023-08-08T10:38:23;3.78;;;2.85;;
20491;SDS011;10404;51.468;6.762;2023-08-08T10:40:56;5.65;;;3.08;;
20491;SDS011;10404;51.468;6.762;2023-08-08T10:43:27;4.97;;;3.22;;
20491;SDS011;10404;51.468;6.762;2023-08-08T10:46:01;4.30;;;3.75;;
20491;SDS011;10404;51.468;6.762;2023-08-08T10:48:28;3.22;;;2.47;;
20491;SDS011;10404;51.468;6.762;2023-08-08T10:51:00;3.10;;;2.80;;
20491;SDS011;10404;51.468;6.762;2023-08-08T10:53:29;5.30;;;3.05;;
20491;SDS011;10404;51.468;6.762;2023-08-08T10:56:02;4.60;;;3.85;;
20491;SDS011;10404;51.468;6.762;2023-08-08T10:58:39;4.55;;;2.33;;
20491;SDS011;10404;51.468;6.762;2023-08-08T11:01:05;4.00;;;3.08;;
20491;SDS011;10404;51.468;6.762;2023-08-08T11:06:01;4.97;;;4.25;;
20491;SDS011;10404;51.468;6.762;2023-08-08T11:08:29;3.33;;;2.40;;
20491;SDS011;10404;51.468;6.762;2023-08-08T11:10:56;4.18;;;3.47;;
20491;SDS011;10404;51.468;6.762;2023-08-08T11:13:22;3.00;;;2.10;;
20491;SDS011;10404;51.468;6.762;2023-08-08T11:15:47;4.95;;;3.17;;
20491;SDS011;10404;51.468;6.762;2023-08-08T11:18:13;3.80;;;2.17;;
20491;SDS011;10404;51.468;6.762;2023-08-08T11:20:39;3.85;;;3.20;;
20491;SDS011;10404;51.468;6.762;2023-08-08T11:23:05;3.67;;;3.38;;
20491;SDS011;10404;51.468;6.762;2023-08-08T11:25:35;4.10;;;3.30;;
20491;SDS011;10404;51.468;6.762;2023-08-08T11:28:02;4.18;;;3.53;;
20491;SDS011;10404;51.468;6.762;2023-08-08T11:30:32;6.95;;;2.70;;
20491;SDS011;10404;51.468;6.762;2023-08-08T11:33:00;4.20;;;3.65;;
20491;SDS011;10404;51.468;6.762;2023-08-08T11:35:26;3.38;;;2.00;;
20491;SDS011;10404;51.468;6.762;2023-08-08T11:37:56;2.35;;;2.15;;
20491;SDS011;10404;51.468;6.762;2023-08-08T11:40:23;3.60;;;2.80;;
20491;SDS011;10404;51.468;6.762;2023-08-08T11:42:53;3.35;;;2.88;;
20491;SDS011;10404;51.468;6.762;2023-08-08T11:45:20;3.20;;;1.80;;
20491;SDS011;10404;51.468;6.762;2023-08-08T11:47:49;4.57;;;2.33;;
20491;SDS011;10404;51.468;6.762;2023-08-08T11:50:16;2.65;;;2.45;;
20491;SDS011;10404;51.468;6.762;2023-08-08T11:52:45;2.50;;;2.00;;
20491;SDS011;10404;51.468;6.762;2023-08-08T11:55:11;3.72;;;2.55;;
20491;SDS011;10404;51.468;6.762;2023-08-08T11:57:38;4.93;;;3.25;;
20491;SDS011;10404;51.468;6.762;2023-08-08T12:00:08;4.75;;;3.42;;
20491;SDS011;10404;51.468;6.762;2023-08-08T12:02:37;2.30;;;2.10;;
20491;SDS011;10404;51.468;6.762;2023-08-08T12:05:10;3.55;;;3.22;;
20491;SDS011;10404;51.468;6.762;2023-08-08T12:07:37;3.20;;;2.70;;
20491;SDS011;10404;51.468;6.762;2023-08-08T12:10:12;3.80;;;3.50;;
20491;SDS011;10404;51.468;6.762;2023-08-08T12:12:55;3.47;;;3.10;;
20491;SDS011;10404;51.468;6.762;2023-08-08T12:15:27;2.88;;;2.50;;
20491;SDS011;10404;51.468;6.762;2023-08-08T12:18:02;4.32;;;4.03;;
20491;SDS011;10404;51.468;6.762;2023-08-08T12:20:28;2.92;;;2.60;;
20491;SDS011;10404;51.468;6.762;2023-08-08T12:22:56;3.63;;;3.33;;
20491;SDS011;10404;51.468;6.762;2023-08-08T12:25:24;2.92;;;2.70;;
20491;SDS011;10404;51.468;6.762;2023-08-08T12:27:50;5.50;;;3.00;;
20491;SDS011;10404;51.468;6.762;2023-08-08T12:30:16;3.70;;;3.28;;
20491;SDS011;10404;51.468;6.762;2023-08-08T12:32:42;3.90;;;3.08;;
20491;SDS011;10404;51.468;6.762;2023-08-08T12:35:07;3.78;;;3.45;;
20491;SDS011;10404;51.468;6.762;2023-08-08T12:37:33;3.80;;;3.45;;
20491;SDS011;10404;51.468;6.762;2023-08-08T12:39:59;4.10;;;3.53;;
20491;SDS011;10404;51.468;6.762;2023-08-08T12:42:24;4.72;;;3.38;;
20491;SDS011;10404;51.468;6.762;2023-08-08T12:44:50;3.47;;;3.15;;
20491;SDS011;10404;51.468;6.762;2023-08-08T12:47:17;3.78;;;3.50;;
20491;SDS011;10404;51.468;6.762;2023-08-08T12:49:44;4.90;;;3.10;;
20491;SDS011;10404;51.468;6.762;2023-08-08T12:52:10;4.28;;;3.97;;
20491;SDS011;10404;51.468;6.762;2023-08-08T12:54:35;3.00;;;2.35;;
20491;SDS011;10404;51.468;6.762;2023-08-08T12:57:01;4.90;;;4.47;;
20491;SDS011;10404;51.468;6.762;2023-08-08T12:59:27;3.60;;;3.30;;
20491;SDS011;10404;51.468;6.762;2023-08-08T13:01:53;3.25;;;2.95;;
20491;SDS011;10404;51.468;6.762;2023-08-08T13:04:18;4.05;;;2.20;;
20491;SDS011;10404;51.468;6.762;2023-08-08T13:06:44;2.90;;;2.63;;
20491;SDS011;10404;51.468;6.762;2023-08-08T13:09:10;3.55;;;3.25;;
20491;SDS011;10404;51.468;6.762;2023-08-08T13:11:35;4.18;;;3.13;;
20491;SDS011;10404;51.468;6.762;2023-08-08T13:14:01;4.90;;;4.60;;
20491;SDS011;10404;51.468;6.762;2023-08-08T13:16:27;3.65;;;2.65;;
20491;SDS011;10404;51.468;6.762;2023-08-08T13:18:52;3.03;;;2.83;;
20491;SDS011;10404;51.468;6.762;2023-08-08T13:21:18;3.25;;;2.40;;
20491;SDS011;10404;51.468;6.762;2023-08-08T13:23:43;5.18;;;3.28;;
20491;SDS011;10404;51.468;6.762;2023-08-08T13:26:09;4.45;;;4.05;;
20491;SDS011;10404;51.468;6.762;2023-08-08T13:28:35;2.90;;;2.63;;
20491;SDS011;10404;51.468;6.762;2023-08-08T13:31:01;4.25;;;3.90;;
20491;SDS011;10404;51.468;6.762;2023-08-08T13:33:26;3.20;;;2.85;;
20491;SDS011;10404;51.468;6.762;2023-08-08T13:35:52;3.83;;;2.65;;
20491;SDS011;10404;51.468;6.762;2023-08-08T13:38:17;2.92;;;2.63;;
20491;SDS011;10404;51.468;6.762;2023-08-08T13:40:43;3.00;;;2.80;;
20491;SDS011;10404;51.468;6.762;2023-08-08T13:43:09;4.55;;;4.15;;
20491;SDS011;10404;51.468;6.762;2023-08-08T13:45:34;3.05;;;2.58;;
20491;SDS011;10404;51.468;6.762;2023-08-08T13:48:00;3.60;;;3.10;;
20491;SDS011;10404;51.468;6.762;2023-08-08T13:50:26;4.45;;;3.08;;
20491;SDS011;10404;51.468;6.762;2023-08-08T13:52:52;4.30;;;3.88;;
20491;SDS011;10404;51.468;6.762;2023-08-08T13:55:18;3.00;;;2.80;;
20491;SDS011;10404;51.468;6.762;2023-08-08T13:57:44;2.88;;;2.50;;
20491;SDS011;10404;51.468;6.762;2023-08-08T14:00:10;3.70;;;3.50;;
20491;SDS011;10404;51.468;6.762;2023-08-08T14:02:37;3.40;;;3.10;;
20491;SDS011;10404;51.468;6.762;2023-08-08T14:05:04;5.35;;;3.92;;
20491;SDS011;10404;51.468;6.762;2023-08-08T14:07:31;3.42;;;2.95;;
20491;SDS011;10404;51.468;6.762;2023-08-08T14:09:58;3.35;;;3.08;;
20491;SDS011;10404;51.468;6.762;2023-08-08T14:12:24;3.25;;;2.95;;
20491;SDS011;10404;51.468;6.762;2023-08-08T14:14:50;4.00;;;3.60;;
20491;SDS011;10404;51.468;6.762;2023-08-08T14:17:15;3.22;;;2.97;;
20491;SDS011;10404;51.468;6.762;2023-08-08T14:19:41;4.35;;;3.20;;
20491;SDS011;10404;51.468;6.762;2023-08-08T14:22:06;3.08;;;2.78;;
20491;SDS011;10404;51.468;6.762;2023-08-08T14:24:32;2.97;;;2.78;;
20491;SDS011;10404;51.468;6.762;2023-08-08T14:26:57;3.90;;;3.60;;
20491;SDS011;10404;51.468;6.762;2023-08-08T14:29:23;3.92;;;2.42;;
20491;SDS011;10404;51.468;6.762;2023-08-08T14:31:48;3.47;;;3.15;;
20491;SDS011;10404;51.468;6.762;2023-08-08T14:34:14;3.20;;;2.97;;
20491;SDS011;10404;51.468;6.762;2023-08-08T14:36:40;2.70;;;2.45;;
20491;SDS011;10404;51.468;6.762;2023-08-08T14:39:06;2.53;;;2.03;;
20491;SDS011;10404;51.468;6.762;2023-08-08T14:41:32;2.95;;;2.17;;
20491;SDS011;10404;51.468;6.762;2023-08-08T14:43:58;3.47;;;3.22;;
20491;SDS011;10404;51.468;6.762;2023-08-08T14:46:24;3.00;;;2.30;;
20491;SDS011;10404;51.468;6.762;2023-08-08T14:48:49;4.15;;;2.97;;